createdAt,value
2022-11-05T00:01:55.188Z,98050.22
2022-11-05T00:04:40.154Z,98052.09
2022-11-05T00:07:31.562Z,98049.56
2022-11-05T00:10:03.719Z,98063.56
2022-11-05T00:12:49.512Z,98060.97
2022-11-05T00:15:34.804Z,98065.31
2022-11-05T00:18:01.449Z,98060.97
2022-11-05T00:20:28.166Z,98069.75
2022-11-05T00:23:23.786Z,98074.00
2022-11-05T00:25:55.199Z,98067.88
2022-11-05T00:28:22.085Z,98077.44
2022-11-05T00:30:48.945Z,98079.97
2022-11-05T00:33:15.615Z,98084.31
2022-11-05T00:35:42.259Z,98083.31
2022-11-05T00:38:08.847Z,98086.06
2022-11-05T00:40:36.321Z,98089.53
2022-11-05T00:43:21.269Z,98081.72
2022-11-05T00:45:47.973Z,98079.28
2022-11-05T00:48:33.216Z,98084.50
2022-11-05T00:50:59.830Z,98093.25
2022-11-05T00:53:26.512Z,98089.72
2022-11-05T00:55:53.153Z,98094.09
2022-11-05T00:58:22.171Z,98097.75
2022-11-05T01:00:51.771Z,98095.19
2022-11-05T01:03:22.385Z,98102.00
2022-11-05T01:05:52.265Z,98102.91
2022-11-05T01:08:21.442Z,98106.44
2022-11-05T01:11:11.782Z,98109.72
2022-11-05T01:13:39.677Z,98103.81
2022-11-05T01:16:08.560Z,98115.97
2022-11-05T01:18:38.223Z,98110.81
2022-11-05T01:21:15.977Z,98116.91
2022-11-05T01:23:42.830Z,98120.56
2022-11-05T01:26:09.449Z,98128.25
2022-11-05T01:28:36.243Z,98130.03
2022-11-05T01:31:03.010Z,98130.09
2022-11-05T01:33:29.776Z,98134.56
2022-11-05T01:35:56.531Z,98133.69
2022-11-05T01:38:23.136Z,98137.34
2022-11-05T01:40:49.809Z,98128.84
2022-11-05T01:43:23.889Z,98136.75
2022-11-05T01:45:54.784Z,98140.38
2022-11-05T01:48:36.088Z,98143.91
2022-11-05T01:51:08.870Z,98140.44
2022-11-05T01:53:47.101Z,98143.97
2022-11-05T01:56:21.808Z,98143.16
2022-11-05T01:59:14.681Z,98154.50
2022-11-05T02:01:41.466Z,98145.81
2022-11-05T02:04:16.025Z,98143.16
2022-11-05T02:06:46.317Z,98137.88
2022-11-05T02:09:26.775Z,98147.50
2022-11-05T02:11:53.807Z,98143.25
2022-11-05T02:14:21.012Z,98140.53
2022-11-05T02:17:19.787Z,98143.09
2022-11-05T02:20:41.425Z,98143.94
2022-11-05T02:23:29.922Z,98143.94
2022-11-05T02:26:08.594Z,98147.47
2022-11-05T02:28:50.359Z,98152.69
2022-11-05T02:31:47.486Z,98154.38
2022-11-05T02:34:36.105Z,98159.66
2022-11-05T02:37:28.101Z,98156.97
2022-11-05T02:40:01.248Z,98161.38
2022-11-05T02:42:38.583Z,98161.38
2022-11-05T02:45:40.650Z,98165.78
2022-11-05T02:48:30.135Z,98163.09
2022-11-05T02:51:12.266Z,98175.38
2022-11-05T02:53:58.417Z,98177.97
2022-11-05T02:56:31.329Z,98177.03
2022-11-05T02:58:58.019Z,98172.63
2022-11-05T03:01:24.755Z,98175.38
2022-11-05T03:04:04.311Z,98177.03
2022-11-05T03:07:05.751Z,98170.13
2022-11-05T03:10:00.326Z,98179.66
2022-11-05T03:12:44.660Z,98171.81
2022-11-05T03:15:35.959Z,98170.16
2022-11-05T03:18:14.980Z,98178.81
2022-11-05T03:20:58.959Z,98187.53
2022-11-05T03:23:42.709Z,98196.31
2022-11-05T03:26:31.548Z,98198.03
2022-11-05T03:29:06.780Z,98205.00
2022-11-05T03:31:35.821Z,98209.34
2022-11-05T03:34:05.723Z,98208.31
2022-11-05T03:36:41.968Z,98211.81
2022-11-05T03:39:18.636Z,98215.31
2022-11-05T03:41:49.346Z,98216.22
2022-11-05T03:44:32.780Z,98216.31
2022-11-05T03:47:21.833Z,98216.19
2022-11-05T03:49:55.738Z,98217.97
2022-11-05T03:52:28.017Z,98218.88
2022-11-05T03:54:55.075Z,98232.88
2022-11-05T03:57:26.272Z,98234.66
2022-11-05T03:59:52.940Z,98233.72
2022-11-05T04:02:22.274Z,98232.69
2022-11-05T04:04:49.372Z,98239.63
2022-11-05T04:07:34.495Z,98245.81
2022-11-05T04:10:19.617Z,98246.75
2022-11-05T04:13:05.326Z,98246.81
2022-11-05T04:15:51.911Z,98259.91
2022-11-05T04:18:19.053Z,98265.13
2022-11-05T04:21:04.279Z,98265.84
2022-11-05T04:23:49.283Z,98268.56
2022-11-05T04:26:15.942Z,98264.91
2022-11-05T04:29:06.770Z,98272.69
2022-11-05T04:31:34.473Z,98267.56
2022-11-05T04:34:01.263Z,98272.00
2022-11-05T04:36:28.023Z,98274.53
2022-11-05T04:38:54.621Z,98274.53
2022-11-05T04:41:21.288Z,98268.31
2022-11-05T04:43:47.940Z,98272.00
2022-11-05T04:46:14.582Z,98274.47
2022-11-05T04:48:41.236Z,98272.88
2022-11-05T04:51:07.879Z,98281.50
2022-11-05T04:53:34.443Z,98286.13
2022-11-05T04:56:28.541Z,98289.66
2022-11-05T04:58:55.098Z,98285.25
2022-11-05T05:01:23.674Z,98286.97
2022-11-05T05:03:51.780Z,98283.44
2022-11-05T05:06:19.613Z,98286.03
2022-11-05T05:08:50.563Z,98276.41
2022-11-05T05:11:19.576Z,98280.78
2022-11-05T05:13:46.505Z,98289.59
2022-11-05T05:16:27.547Z,98298.31
2022-11-05T05:18:54.424Z,98301.03
2022-11-05T05:21:41.147Z,98302.75
2022-11-05T05:24:13.236Z,98310.66
2022-11-05T05:26:42.712Z,98309.81
2022-11-05T05:29:10.118Z,98314.13
2022-11-05T05:31:37.300Z,98311.44
2022-11-05T05:34:04.332Z,98314.97
2022-11-05T05:36:31.543Z,98318.38
2022-11-05T05:38:58.356Z,98314.94
2022-11-05T05:41:25.380Z,98328.94
2022-11-05T05:43:52.185Z,98325.44
2022-11-05T05:46:19.909Z,98328.13
2022-11-05T05:48:51.698Z,98325.47
2022-11-05T05:51:19.442Z,98322.94
2022-11-05T05:53:46.083Z,98322.97
2022-11-05T05:56:15.174Z,98317.75
2022-11-05T05:58:41.925Z,98319.50
2022-11-05T06:01:17.212Z,98315.16
2022-11-05T06:03:45.544Z,98320.47
2022-11-05T06:06:13.718Z,98328.31
2022-11-05T06:08:41.163Z,98337.91
2022-11-05T06:11:08.559Z,98339.66
2022-11-05T06:13:36.234Z,98350.19
2022-11-05T06:16:05.106Z,98350.25
2022-11-05T06:18:32.904Z,98356.22
2022-11-05T06:21:08.735Z,98358.03
2022-11-05T06:23:36.753Z,98364.97
2022-11-05T06:26:05.128Z,98369.31
2022-11-05T06:28:33.645Z,98373.69
2022-11-05T06:31:00.628Z,98380.72
2022-11-05T06:33:27.713Z,98374.72
2022-11-05T06:35:54.717Z,98382.44
2022-11-05T06:38:21.466Z,98385.06
2022-11-05T06:40:48.055Z,98387.72
2022-11-05T06:43:14.963Z,98392.91
2022-11-05T06:45:42.044Z,98395.53
2022-11-05T06:48:08.658Z,98396.41
2022-11-05T06:50:35.366Z,98400.75
2022-11-05T06:53:04.248Z,98397.22
2022-11-05T06:55:31.827Z,98405.00
2022-11-05T06:57:58.837Z,98405.00
2022-11-05T07:00:26.048Z,98410.16
2022-11-05T07:02:53.003Z,98423.25
2022-11-05T07:05:19.753Z,98424.13
2022-11-05T07:07:46.457Z,98424.13
2022-11-05T07:10:16.209Z,98415.28
2022-11-05T07:12:43.564Z,98425.81
2022-11-05T07:15:12.188Z,98428.44
2022-11-05T07:17:39.740Z,98435.38
2022-11-05T07:20:08.234Z,98445.03
2022-11-05T07:22:35.968Z,98444.97
2022-11-05T07:25:03.188Z,98458.03
2022-11-05T07:27:29.806Z,98452.78
2022-11-05T07:29:56.541Z,98465.00
2022-11-05T07:32:23.252Z,98460.50
2022-11-05T07:34:49.872Z,98456.13
2022-11-05T07:37:19.348Z,98454.28
2022-11-05T07:39:46.026Z,98454.22
2022-11-05T07:42:13.785Z,98460.22
2022-11-05T07:44:40.687Z,98460.22
2022-11-05T07:47:07.628Z,98464.59
2022-11-05T07:49:34.193Z,98454.00
2022-11-05T07:52:00.884Z,98466.13
2022-11-05T07:54:27.746Z,98465.84
2022-11-05T07:56:54.390Z,98476.19
2022-11-05T07:59:21.254Z,98470.75
2022-11-05T08:01:47.932Z,98475.81
2022-11-05T08:04:14.880Z,98476.47
2022-11-05T08:06:41.584Z,98484.97
2022-11-05T08:09:09.283Z,98483.22
2022-11-05T08:11:36.055Z,98489.44
2022-11-05T08:14:02.724Z,98496.25
2022-11-05T08:16:29.349Z,98493.56
2022-11-05T08:18:56.006Z,98496.19
2022-11-05T08:21:22.690Z,98490.03
2022-11-05T08:23:49.347Z,98504.63
2022-11-05T08:26:16.023Z,98497.91
2022-11-05T08:28:42.636Z,98498.59
2022-11-05T08:31:09.219Z,98491.81
2022-11-05T08:33:35.826Z,98494.94
2022-11-05T08:36:04.435Z,98491.53
2022-11-05T08:38:30.993Z,98500.19
2022-11-05T08:40:58.850Z,98501.38
2022-11-05T08:43:25.886Z,98504.00
2022-11-05T08:45:52.756Z,98502.47
2022-11-05T08:48:19.613Z,98514.63
2022-11-05T08:50:48.410Z,98521.78
2022-11-05T08:53:16.280Z,98525.13
2022-11-05T08:55:44.140Z,98527.34
2022-11-05T08:58:15.040Z,98535.38
2022-11-05T09:00:42.430Z,98537.69
2022-11-05T09:03:09.512Z,98534.22
2022-11-05T09:05:39.384Z,98546.28
2022-11-05T09:08:06.534Z,98547.38
2022-11-05T09:10:33.643Z,98552.59
2022-11-05T09:13:00.332Z,98558.59
2022-11-05T09:15:28.421Z,98558.84
2022-11-05T09:17:55.401Z,98555.50
2022-11-05T09:20:22.260Z,98565.94
2022-11-05T09:22:48.968Z,98561.28
2022-11-05T09:25:16.122Z,98574.09
2022-11-05T09:27:43.937Z,98575.00
2022-11-05T09:30:11.806Z,98582.09
2022-11-05T09:32:38.891Z,98580.91
2022-11-05T09:35:07.804Z,98577.09
2022-11-05T09:37:36.030Z,98581.28
2022-11-05T09:40:02.749Z,98576.56
2022-11-05T09:42:42.582Z,98583.09
2022-11-05T09:45:15.678Z,98593.38
2022-11-05T09:47:47.361Z,98592.84
2022-11-05T09:50:25.936Z,98606.09
2022-11-05T09:52:52.617Z,98599.38
2022-11-05T09:55:26.665Z,98596.38
2022-11-05T09:58:01.546Z,98600.56
2022-11-05T10:00:30.317Z,98598.69
2022-11-05T10:03:18.055Z,98598.91
2022-11-05T10:05:45.825Z,98601.75
2022-11-05T10:08:23.817Z,98597.84
2022-11-05T10:10:56.017Z,98606.38
2022-11-05T10:13:33.385Z,98601.19
2022-11-05T10:16:14.279Z,98599.41
2022-11-05T10:18:44.877Z,98602.56
2022-11-05T10:21:32.344Z,98607.66
2022-11-05T10:24:15.802Z,98604.69
2022-11-05T10:26:43.606Z,98611.66
2022-11-05T10:29:13.811Z,98606.94
2022-11-05T10:31:40.801Z,98608.00
2022-11-05T10:34:09.671Z,98603.31
2022-11-05T10:36:39.632Z,98607.50
2022-11-05T10:39:18.088Z,98607.38
2022-11-05T10:42:12.284Z,98609.97
2022-11-05T10:44:53.206Z,98610.56
2022-11-05T10:48:02.198Z,98611.56
2022-11-05T10:50:30.257Z,98616.78
2022-11-05T10:53:19.398Z,98610.41
2022-11-05T10:55:51.532Z,98609.78
2022-11-05T10:58:18.092Z,98605.72
2022-11-05T11:00:53.898Z,98610.84
2022-11-05T11:03:46.743Z,98618.59
2022-11-05T11:06:25.242Z,98619.38
2022-11-05T11:08:53.925Z,98620.53
2022-11-05T11:11:39.243Z,98614.25
2022-11-05T11:14:11.803Z,98616.78
2022-11-05T11:16:40.816Z,98609.00
2022-11-05T11:19:32.728Z,98610.22
2022-11-05T11:22:05.422Z,98614.22
2022-11-05T11:24:45.265Z,98615.53
2022-11-05T11:27:34.504Z,98601.34
2022-11-05T11:30:04.056Z,98612.50
2022-11-05T11:32:39.822Z,98605.88
2022-11-05T11:35:18.594Z,98606.72
2022-11-05T11:37:46.558Z,98604.34
2022-11-05T11:40:22.397Z,98612.09
2022-11-05T11:43:02.929Z,98602.34
2022-11-05T11:46:04.816Z,98601.94
2022-11-05T11:48:36.466Z,98597.38
2022-11-05T11:51:17.433Z,98603.91
2022-11-05T11:53:43.987Z,98599.56
2022-11-05T11:56:16.799Z,98603.91
2022-11-05T11:58:51.864Z,98601.38
2022-11-05T12:01:36.649Z,98601.53
2022-11-05T12:04:10.584Z,98598.00
2022-11-05T12:06:52.489Z,98598.00
2022-11-05T12:09:37.348Z,98592.53
2022-11-05T12:12:15.476Z,98599.47
2022-11-05T12:15:09.938Z,98587.53
2022-11-05T12:17:56.136Z,98592.13
2022-11-05T12:20:27.388Z,98597.41
2022-11-05T12:23:12.185Z,98599.25
2022-11-05T12:26:08.694Z,98594.59
2022-11-05T12:29:17.432Z,98591.66
2022-11-05T12:31:51.033Z,98581.88
2022-11-05T12:34:55.864Z,98576.44
2022-11-05T12:37:37.545Z,98580.28
2022-11-05T12:40:43.096Z,98575.00
2022-11-05T12:43:16.984Z,98587.81
2022-11-05T12:45:49.929Z,98583.59
2022-11-05T12:48:37.198Z,98591.66
2022-11-05T12:51:24.780Z,98585.06
2022-11-05T12:54:09.581Z,98596.19
2022-11-05T12:56:41.746Z,98592.28
2022-11-05T12:59:47.727Z,98594.13
2022-11-05T13:02:28.940Z,98596.31
2022-11-05T13:05:01.732Z,98592.06
2022-11-05T13:07:33.350Z,98590.03
2022-11-05T13:10:07.595Z,98591.09
2022-11-05T13:12:39.977Z,98593.47
2022-11-05T13:15:24.755Z,98583.81
2022-11-05T13:18:03.465Z,98589.78
2022-11-05T13:20:34.146Z,98588.19
2022-11-05T13:23:35.422Z,98586.47
2022-11-05T13:26:19.869Z,98586.06
2022-11-05T13:29:11.010Z,98586.03
2022-11-05T13:31:49.027Z,98583.72
2022-11-05T13:34:15.773Z,98589.47
2022-11-05T13:37:17.693Z,98596.97
2022-11-05T13:39:47.348Z,98589.41
2022-11-05T13:42:32.813Z,98592.91
2022-11-05T13:45:20.039Z,98588.31
2022-11-05T13:47:55.723Z,98585.97
2022-11-05T13:50:45.477Z,98594.25
2022-11-05T13:53:42.876Z,98587.25
2022-11-05T13:56:30.944Z,98583.56
2022-11-05T13:59:03.398Z,98583.78
2022-11-05T14:01:45.610Z,98589.13
2022-11-05T14:04:26.110Z,98579.72
2022-11-05T14:06:53.586Z,98585.25
2022-11-05T14:09:25.571Z,98589.59
2022-11-05T14:11:58.474Z,98591.09
2022-11-05T14:14:29.908Z,98595.03
2022-11-05T14:17:08.657Z,98598.66
2022-11-05T14:19:48.859Z,98598.72
2022-11-05T14:22:33.976Z,98597.13
2022-11-05T14:25:02.676Z,98597.13
2022-11-05T14:27:29.213Z,98595.59
2022-11-05T14:29:56.230Z,98593.16
2022-11-05T14:32:25.712Z,98588.81
2022-11-05T14:35:04.240Z,98591.47
2022-11-05T14:37:37.205Z,98590.72
2022-11-05T14:40:21.962Z,98596.16
2022-11-05T14:42:58.705Z,98593.72
2022-11-05T14:45:40.683Z,98596.56
2022-11-05T14:48:27.249Z,98593.72
2022-11-05T14:50:55.025Z,98601.94
2022-11-05T14:53:41.902Z,98608.84
2022-11-05T14:56:15.204Z,98605.56
2022-11-05T14:58:43.560Z,98609.19
2022-11-05T15:01:35.851Z,98615.31
2022-11-05T15:04:17.528Z,98609.38
2022-11-05T15:07:02.553Z,98618.66
2022-11-05T15:09:35.458Z,98622.13
2022-11-05T15:12:20.146Z,98621.44
2022-11-05T15:14:51.293Z,98620.78
2022-11-05T15:17:30.001Z,98624.44
2022-11-05T15:20:18.835Z,98622.84
2022-11-05T15:22:49.175Z,98626.56
2022-11-05T15:25:24.329Z,98636.38
2022-11-05T15:28:01.539Z,98635.88
2022-11-05T15:30:28.363Z,98644.81
2022-11-05T15:32:55.271Z,98643.25
2022-11-05T15:35:31.043Z,98647.06
2022-11-05T15:38:02.057Z,98650.03
2022-11-05T15:40:33.336Z,98650.38
2022-11-05T15:43:10.899Z,98649.56
2022-11-05T15:45:37.833Z,98656.81
2022-11-05T15:48:13.596Z,98663.97
2022-11-05T15:50:41.112Z,98655.28
2022-11-05T15:53:47.375Z,98653.63
2022-11-05T15:56:45.535Z,98657.28
2022-11-05T15:59:20.521Z,98655.72
2022-11-05T16:01:50.170Z,98652.25
2022-11-05T16:04:19.192Z,98650.59
2022-11-05T16:06:49.172Z,98658.53
2022-11-05T16:09:26.648Z,98658.63
2022-11-05T16:12:18.627Z,98666.59
2022-11-05T16:14:58.710Z,98666.59
2022-11-05T16:17:46.590Z,98662.25
2022-11-05T16:20:28.709Z,98672.03
2022-11-05T16:23:03.054Z,98670.25
2022-11-05T16:25:43.788Z,98668.59
2022-11-05T16:28:25.860Z,98675.56
2022-11-05T16:31:01.116Z,98672.06
2022-11-05T16:33:39.226Z,98679.00
2022-11-05T16:36:07.608Z,98678.03
2022-11-05T16:38:34.241Z,98678.03
2022-11-05T16:41:00.788Z,98694.69
2022-11-05T16:43:27.728Z,98692.13
2022-11-05T16:45:58.402Z,98690.44
2022-11-05T16:48:25.610Z,98682.59
2022-11-05T16:50:52.456Z,98690.53
2022-11-05T16:53:19.258Z,98691.41
2022-11-05T16:55:46.330Z,98694.06
2022-11-05T16:58:22.184Z,98698.50
2022-11-05T17:00:55.875Z,98695.91
2022-11-05T17:03:22.577Z,98688.16
2022-11-05T17:05:49.142Z,98700.34
2022-11-05T17:08:15.796Z,98696.88
2022-11-05T17:10:42.792Z,98689.06
2022-11-05T17:13:14.437Z,98691.69
2022-11-05T17:15:43.856Z,98696.97
2022-11-05T17:18:16.937Z,98698.78
2022-11-05T17:20:46.861Z,98697.94
2022-11-05T17:23:16.211Z,98708.34
2022-11-05T17:25:45.704Z,98704.00
2022-11-05T17:28:13.195Z,98709.25
2022-11-05T17:30:41.741Z,98714.50
2022-11-05T17:33:09.990Z,98712.75
2022-11-05T17:35:41.207Z,98717.13
2022-11-05T17:38:08.949Z,98726.66
2022-11-05T17:40:36.929Z,98711.03
2022-11-05T17:43:04.520Z,98715.34
2022-11-05T17:45:31.319Z,98720.56
2022-11-05T17:47:57.951Z,98718.81
2022-11-05T17:50:24.854Z,98717.09
2022-11-05T17:52:51.545Z,98717.97
2022-11-05T17:55:18.284Z,98716.22
2022-11-05T17:57:49.428Z,98721.47
2022-11-05T18:00:18.636Z,98721.50
2022-11-05T18:02:46.490Z,98724.94
2022-11-05T18:05:13.773Z,98728.41
2022-11-05T18:07:40.730Z,98721.41
2022-11-05T18:10:09.217Z,98730.97
2022-11-05T18:12:36.341Z,98733.56
2022-11-05T18:15:03.627Z,98730.09
2022-11-05T18:17:30.312Z,98729.22
2022-11-05T18:19:56.906Z,98726.50
2022-11-05T18:22:23.467Z,98728.25
2022-11-05T18:24:50.221Z,98723.00
2022-11-05T18:27:16.877Z,98727.41
2022-11-05T18:29:43.432Z,98737.88
2022-11-05T18:32:10.031Z,98730.09
2022-11-05T18:34:36.791Z,98727.47
2022-11-05T18:37:03.647Z,98739.63
2022-11-05T18:39:30.302Z,98731.81
2022-11-05T18:41:56.879Z,98740.56
2022-11-05T18:44:24.883Z,98749.25
2022-11-05T18:46:57.951Z,98743.19
2022-11-05T18:49:25.296Z,98744.03
2022-11-05T18:51:51.853Z,98743.16
2022-11-05T18:54:18.528Z,98744.06
2022-11-05T18:56:45.793Z,98736.22
2022-11-05T18:59:35.782Z,98747.53
2022-11-05T19:02:00.986Z,98746.63
2022-11-05T19:04:27.992Z,98746.63
2022-11-05T19:06:54.561Z,98754.47
2022-11-05T19:09:21.181Z,98756.22
2022-11-05T19:11:47.910Z,98755.31
2022-11-05T19:14:14.555Z,98755.31
2022-11-05T19:16:41.126Z,98747.47
2022-11-05T19:19:07.857Z,98759.66
2022-11-05T19:21:34.575Z,98762.25
2022-11-05T19:24:02.963Z,98759.63
2022-11-05T19:26:30.429Z,98757.00
2022-11-05T19:29:01.878Z,98752.63
2022-11-05T19:31:30.051Z,98760.44
2022-11-05T19:33:56.794Z,98754.34
2022-11-05T19:36:24.768Z,98758.66
2022-11-05T19:39:00.333Z,98757.81
2022-11-05T19:41:28.022Z,98763.06
2022-11-05T19:43:55.508Z,98763.91
2022-11-05T19:46:23.645Z,98758.72
2022-11-05T19:48:51.129Z,98754.34
2022-11-05T19:51:21.385Z,98753.47
2022-11-05T19:53:48.238Z,98757.00
2022-11-05T19:56:17.300Z,98761.34
2022-11-05T19:58:44.365Z,98763.09
2022-11-05T20:01:12.913Z,98758.75
2022-11-05T20:03:40.238Z,98750.91
2022-11-05T20:06:10.615Z,98752.63
2022-11-05T20:08:53.361Z,98755.19
2022-11-05T20:11:25.494Z,98752.56
2022-11-05T20:13:52.259Z,98758.72
2022-11-05T20:16:24.316Z,98758.72
2022-11-05T20:18:51.505Z,98748.25
2022-11-05T20:21:18.921Z,98753.47
2022-11-05T20:23:46.590Z,98759.59
2022-11-05T20:26:14.013Z,98757.88
2022-11-05T20:28:41.440Z,98758.75
2022-11-05T20:31:11.020Z,98761.38
2022-11-05T20:33:39.325Z,98764.00
2022-11-05T20:36:08.769Z,98763.09
2022-11-05T20:38:35.537Z,98757.88
2022-11-05T20:41:14.408Z,98759.56
2022-11-05T20:43:41.880Z,98765.69
2022-11-05T20:46:11.892Z,98763.06
2022-11-05T20:48:38.564Z,98763.88
2022-11-05T20:51:07.959Z,98768.22
2022-11-05T20:53:35.148Z,98771.66
2022-11-05T20:56:07.483Z,98763.81
2022-11-05T20:58:36.078Z,98760.31
2022-11-05T21:01:02.750Z,98762.97
2022-11-05T21:03:30.762Z,98763.00
2022-11-05T21:05:59.998Z,98775.22
2022-11-05T21:08:27.906Z,98775.19
2022-11-05T21:10:55.498Z,98776.91
2022-11-05T21:13:22.958Z,98777.81
2022-11-05T21:15:55.556Z,98766.44
2022-11-05T21:18:25.007Z,98764.75
2022-11-05T21:20:52.224Z,98770.03
2022-11-05T21:23:19.179Z,98764.78
2022-11-05T21:25:46.700Z,98758.69
2022-11-05T21:28:14.682Z,98754.31
2022-11-05T21:30:45.081Z,98745.63
2022-11-05T21:33:13.680Z,98744.75
2022-11-05T21:35:45.958Z,98756.97
2022-11-05T21:38:14.752Z,98764.81
2022-11-05T21:40:41.880Z,98754.38
2022-11-05T21:43:09.266Z,98757.81
2022-11-05T21:45:38.863Z,98742.19
2022-11-05T21:48:06.267Z,98739.50
2022-11-05T21:50:51.224Z,98743.00
2022-11-05T21:53:36.778Z,98752.63
2022-11-05T21:56:37.031Z,98750.84
2022-11-05T21:59:23.710Z,98756.00
2022-11-05T22:01:51.185Z,98739.53
2022-11-05T22:04:17.884Z,98744.75
2022-11-05T22:06:44.434Z,98742.13
2022-11-05T22:09:10.995Z,98756.00
2022-11-05T22:11:38.032Z,98745.53
2022-11-05T22:14:04.730Z,98750.78
2022-11-05T22:16:31.271Z,98735.91
2022-11-05T22:18:58.966Z,98736.84
2022-11-05T22:21:25.507Z,98736.81
2022-11-05T22:23:53.321Z,98733.34
2022-11-05T22:26:19.999Z,98732.47
2022-11-05T22:28:46.603Z,98736.88
2022-11-05T22:31:14.864Z,98739.47
2022-11-05T22:33:42.002Z,98741.25
2022-11-05T22:36:09.709Z,98736.88
2022-11-05T22:38:36.592Z,98732.53
2022-11-05T22:41:15.905Z,98732.53
2022-11-05T22:43:42.469Z,98729.91
2022-11-05T22:46:14.764Z,98719.50
2022-11-05T22:48:42.787Z,98729.03
2022-11-05T22:51:12.398Z,98731.63
2022-11-05T22:53:40.513Z,98729.06
2022-11-05T22:56:11.012Z,98731.66
2022-11-05T22:58:37.937Z,98736.94
2022-11-05T23:01:05.711Z,98736.97
2022-11-05T23:03:34.364Z,98733.44
2022-11-05T23:06:28.005Z,98737.81
2022-11-05T23:09:13.071Z,98736.06
2022-11-05T23:11:41.542Z,98741.31
2022-11-05T23:14:10.825Z,98737.81
2022-11-05T23:16:56.581Z,98743.03
2022-11-05T23:19:42.219Z,98747.41
2022-11-05T23:22:39.812Z,98747.44
2022-11-05T23:25:08.856Z,98758.75
2022-11-05T23:27:37.401Z,98753.53
2022-11-05T23:30:11.916Z,98761.38
2022-11-05T23:32:39.088Z,98755.28
2022-11-05T23:35:06.565Z,98757.03
2022-11-05T23:37:52.228Z,98762.28
2022-11-05T23:40:24.808Z,98757.06
2022-11-05T23:43:10.384Z,98766.66
2022-11-05T23:46:00.261Z,98769.25
2022-11-05T23:48:33.654Z,98758.84
2022-11-05T23:51:06.163Z,98761.44
2022-11-05T23:53:35.298Z,98756.22
2022-11-05T23:56:03.549Z,98762.28
2022-11-05T23:58:30.433Z,98756.22
